Hlavní strana
METAR-TAF:

METAR-TAF

Letiště :

Verona, Itálie

zeměpisná šířka: 45-23N, zeměpisná délka: 010-52E, výška: 67 m

Aktuální stav počasí

Zpráva byla vytvořena před 33 minutami, v 01:50 UTC
Severní vítr 4 kt
Teplota 23°C
Vlhkost vzduchu 73%
Tlak 1011 hPa
Viditelnost 10 km a více
Žádná oblačnost pod 1500 m, nevyskytují se cumulonimby.

METAR: LIPX 160150Z 36004KT CAVOK 23/18 Q1011

Čas: 04:23 (02:23 UTC)

Předpověď počasí

Zpráva byla vytvořena před 3 hodinami a 23 minutami, v 23:00 UTC
Předpověď platná od 16 v 00 UTC do 16 v 24 UTC
vítr z různých směrů 5 kt
Viditelnost 10 km a více
Žádná oblačnost pod 1500 m, nevyskytují se cumulonimby.
Změna
od 16 v 10 UTC do 16 v 12 UTC
Západní vítr 10 kt
Změna
od 16 v 16 UTC do 16 v 18 UTC
vítr z různých směrů 5 kt

TAF: LIPX 152300Z 1600/1624 VRB05KT CAVOK BECMG 1610/1612 26010KT BECMG 1616/1618 VRB05KT

Stav a předpovědi počasí z více než 4 000 letišť (zprávy METAR a TAF).

Červené a žluté tečky na mapě představují dostupné meteorologické stanice.

Když kurzor umístíte na tečku, zobrazí se název stanice.

Pak kliknutím zobrazíte stav a předpověď počasí.

Chcete-li změnit mapu, kliknutím na zelené tlačítko se znaménkem +mapu přiblížíte, kliknutím na zelené tlačítko se znaménkem – mapu oddálíte a kliknutím na zelené šipky přejdete na sousední mapy.


METAR-TAF: